sensor_id;sensor_type;location;lat;lon;timestamp;pressure;altitude;pressure_sealevel;temperature;humidity
72409;BME280;60402;48.082;11.628;2023-03-29T00:02:31;95818.31;;;2.11;90.49
72409;BME280;60402;48.082;11.628;2023-03-29T00:05:18;95839.13;;;2.17;91.12
72409;BME280;60402;48.082;11.628;2023-03-29T00:08:09;95830.91;;;1.94;91.76
72409;BME280;60402;48.082;11.628;2023-03-29T00:10:59;95836.53;;;2.01;90.34
72409;BME280;60402;48.082;11.628;2023-03-29T00:13:45;95838.63;;;2.11;89.05
72409;BME280;60402;48.082;11.628;2023-03-29T00:16:30;95846.34;;;2.21;87.95
72409;BME280;60402;48.082;11.628;2023-03-29T00:19:16;95873.09;;;2.26;88.12
72409;BME280;60402;48.082;11.628;2023-03-29T00:22:02;95867.06;;;2.24;88.09
72409;BME280;60402;48.082;11.628;2023-03-29T00:24:53;95889.44;;;2.27;88.73
72409;BME280;60402;48.082;11.628;2023-03-29T00:27:39;95888.75;;;2.38;88.46
72409;BME280;60402;48.082;11.628;2023-03-29T00:30:25;95886.34;;;2.40;87.75
72409;BME280;60402;48.082;11.628;2023-03-29T00:33:11;95893.25;;;2.49;87.12
72409;BME280;60402;48.082;11.628;2023-03-29T00:35:58;95898.94;;;2.60;88.50
72409;BME280;60402;48.082;11.628;2023-03-29T00:38:43;95897.34;;;2.59;91.05
72409;BME280;60402;48.082;11.628;2023-03-29T00:41:29;95887.47;;;2.69;91.72
72409;BME280;60402;48.082;11.628;2023-03-29T00:47:43;95870.03;;;2.79;95.18
72409;BME280;60402;48.082;11.628;2023-03-29T00:53:36;95890.94;;;2.99;97.53
72409;BME280;60402;48.082;11.628;2023-03-29T00:56:28;95881.00;;;3.05;96.27
72409;BME280;60402;48.082;11.628;2023-03-29T00:59:19;95871.00;;;3.01;97.40
72409;BME280;60402;48.082;11.628;2023-03-29T01:02:07;95883.50;;;3.14;97.76
72409;BME280;60402;48.082;11.628;2023-03-29T01:04:58;95894.28;;;3.16;98.71
72409;BME280;60402;48.082;11.628;2023-03-29T01:07:57;95885.88;;;3.12;100.00
72409;BME280;60402;48.082;11.628;2023-03-29T01:10:55;95877.91;;;3.14;100.00
72409;BME280;60402;48.082;11.628;2023-03-29T01:13:52;95863.91;;;3.07;100.00
72409;BME280;60402;48.082;11.628;2023-03-29T01:16:40;95870.72;;;3.13;100.00
72409;BME280;60402;48.082;11.628;2023-03-29T01:19:29;95859.13;;;3.07;100.00
72409;BME280;60402;48.082;11.628;2023-03-29T01:28:38;95845.19;;;3.11;100.00
72409;BME280;60402;48.082;11.628;2023-03-29T01:31:31;95837.97;;;3.10;100.00
72409;BME280;60402;48.082;11.628;2023-03-29T01:34:26;95809.16;;;2.95;100.00
72409;BME280;60402;48.082;11.628;2023-03-29T01:37:42;95815.31;;;3.19;100.00
72409;BME280;60402;48.082;11.628;2023-03-29T01:40:31;95822.81;;;3.07;100.00
72409;BME280;60402;48.082;11.628;2023-03-29T01:43:23;95820.47;;;3.13;100.00
72409;BME280;60402;48.082;11.628;2023-03-29T01:46:33;95815.59;;;3.03;100.00
72409;BME280;60402;48.082;11.628;2023-03-29T01:49:33;95788.50;;;3.07;100.00
72409;BME280;60402;48.082;11.628;2023-03-29T01:52:29;95765.50;;;2.73;100.00
72409;BME280;60402;48.082;11.628;2023-03-29T01:55:21;95751.13;;;2.67;100.00
72409;BME280;60402;48.082;11.628;2023-03-29T01:58:09;95772.00;;;2.84;100.00
72409;BME280;60402;48.082;11.628;2023-03-29T02:00:56;95759.13;;;2.69;100.00
72409;BME280;60402;48.082;11.628;2023-03-29T02:03:45;95753.69;;;2.90;100.00
72409;BME280;60402;48.082;11.628;2023-03-29T02:06:34;95746.88;;;2.84;100.00
72409;BME280;60402;48.082;11.628;2023-03-29T02:09:22;95740.38;;;2.66;100.00
72409;BME280;60402;48.082;11.628;2023-03-29T02:12:08;95736.66;;;2.51;100.00
72409;BME280;60402;48.082;11.628;2023-03-29T02:14:56;95746.69;;;2.59;100.00
72409;BME280;60402;48.082;11.628;2023-03-29T02:17:42;95735.47;;;2.52;100.00
72409;BME280;60402;48.082;11.628;2023-03-29T02:20:31;95745.88;;;2.55;100.00
72409;BME280;60402;48.082;11.628;2023-03-29T02:23:31;95742.47;;;2.32;100.00
72409;BME280;60402;48.082;11.628;2023-03-29T02:26:20;95745.63;;;2.26;100.00
72409;BME280;60402;48.082;11.628;2023-03-29T02:29:07;95758.75;;;2.26;100.00
72409;BME280;60402;48.082;11.628;2023-03-29T02:31:57;95734.28;;;2.09;100.00
72409;BME280;60402;48.082;11.628;2023-03-29T02:34:49;95742.34;;;2.17;100.00
72409;BME280;60402;48.082;11.628;2023-03-29T02:37:41;95718.63;;;1.97;100.00
72409;BME280;60402;48.082;11.628;2023-03-29T02:40:30;95728.22;;;1.99;100.00
72409;BME280;60402;48.082;11.628;2023-03-29T02:43:18;95710.25;;;1.93;100.00
72409;BME280;60402;48.082;11.628;2023-03-29T02:46:05;95695.34;;;1.75;100.00
72409;BME280;60402;48.082;11.628;2023-03-29T02:48:53;95715.34;;;1.88;100.00
72409;BME280;60402;48.082;11.628;2023-03-29T02:51:39;95699.38;;;1.81;100.00
72409;BME280;60402;48.082;11.628;2023-03-29T02:54:26;95693.34;;;1.75;100.00
72409;BME280;60402;48.082;11.628;2023-03-29T02:57:14;95698.53;;;1.77;100.00
72409;BME280;60402;48.082;11.628;2023-03-29T03:00:00;95700.66;;;1.91;100.00
72409;BME280;60402;48.082;11.628;2023-03-29T03:02:46;95672.25;;;1.74;100.00
72409;BME280;60402;48.082;11.628;2023-03-29T03:05:32;95683.81;;;1.76;100.00
72409;BME280;60402;48.082;11.628;2023-03-29T03:08:18;95686.63;;;1.80;100.00
72409;BME280;60402;48.082;11.628;2023-03-29T03:11:04;95663.78;;;1.64;100.00
72409;BME280;60402;48.082;11.628;2023-03-29T03:13:50;95659.03;;;1.68;100.00
72409;BME280;60402;48.082;11.628;2023-03-29T03:16:36;95670.63;;;1.73;100.00
72409;BME280;60402;48.082;11.628;2023-03-29T03:19:21;95659.81;;;1.65;100.00
72409;BME280;60402;48.082;11.628;2023-03-29T03:22:07;95683.16;;;1.90;100.00
72409;BME280;60402;48.082;11.628;2023-03-29T03:24:54;95663.06;;;1.74;100.00
72409;BME280;60402;48.082;11.628;2023-03-29T03:27:40;95662.31;;;1.77;100.00
72409;BME280;60402;48.082;11.628;2023-03-29T03:30:26;95662.34;;;1.81;100.00
72409;BME280;60402;48.082;11.628;2023-03-29T03:33:13;95669.06;;;1.76;100.00
72409;BME280;60402;48.082;11.628;2023-03-29T03:35:59;95630.19;;;1.49;100.00
72409;BME280;60402;48.082;11.628;2023-03-29T03:38:53;95647.41;;;1.59;100.00
72409;BME280;60402;48.082;11.628;2023-03-29T03:41:39;95658.28;;;1.71;100.00
72409;BME280;60402;48.082;11.628;2023-03-29T03:44:25;95661.97;;;1.82;100.00
72409;BME280;60402;48.082;11.628;2023-03-29T03:47:11;95632.19;;;1.49;100.00
72409;BME280;60402;48.082;11.628;2023-03-29T03:49:59;95629.59;;;1.67;100.00
72409;BME280;60402;48.082;11.628;2023-03-29T03:52:44;95640.03;;;1.77;100.00
72409;BME280;60402;48.082;11.628;2023-03-29T03:55:30;95619.84;;;1.50;100.00
72409;BME280;60402;48.082;11.628;2023-03-29T03:58:17;95618.16;;;1.38;100.00
72409;BME280;60402;48.082;11.628;2023-03-29T04:01:03;95615.03;;;1.43;100.00
72409;BME280;60402;48.082;11.628;2023-03-29T04:03:49;95611.06;;;1.44;100.00
72409;BME280;60402;48.082;11.628;2023-03-29T04:06:35;95609.47;;;1.43;100.00
72409;BME280;60402;48.082;11.628;2023-03-29T04:09:21;95589.09;;;1.36;100.00
72409;BME280;60402;48.082;11.628;2023-03-29T04:12:08;95596.38;;;1.47;100.00
72409;BME280;60402;48.082;11.628;2023-03-29T04:14:54;95571.22;;;1.40;100.00
72409;BME280;60402;48.082;11.628;2023-03-29T04:17:40;95584.72;;;1.35;100.00
72409;BME280;60402;48.082;11.628;2023-03-29T04:20:26;95591.19;;;1.46;100.00
72409;BME280;60402;48.082;11.628;2023-03-29T04:23:12;95604.81;;;1.58;100.00
72409;BME280;60402;48.082;11.628;2023-03-29T04:25:58;95588.88;;;1.55;100.00
72409;BME280;60402;48.082;11.628;2023-03-29T04:28:44;95588.69;;;1.78;100.00
72409;BME280;60402;48.082;11.628;2023-03-29T04:31:30;95592.78;;;1.91;100.00
72409;BME280;60402;48.082;11.628;2023-03-29T04:34:16;95601.63;;;2.00;100.00
72409;BME280;60402;48.082;11.628;2023-03-29T04:37:02;95578.84;;;1.91;100.00
72409;BME280;60402;48.082;11.628;2023-03-29T04:39:54;95577.75;;;2.03;100.00
72409;BME280;60402;48.082;11.628;2023-03-29T04:42:40;95592.19;;;2.19;100.00
72409;BME280;60402;48.082;11.628;2023-03-29T04:45:30;95557.44;;;2.02;100.00
72409;BME280;60402;48.082;11.628;2023-03-29T04:48:15;95576.69;;;2.22;100.00
72409;BME280;60402;48.082;11.628;2023-03-29T04:51:01;95587.19;;;2.43;100.00
72409;BME280;60402;48.082;11.628;2023-03-29T04:53:48;95588.84;;;2.58;100.00
72409;BME280;60402;48.082;11.628;2023-03-29T04:56:34;95574.97;;;2.69;100.00
72409;BME280;60402;48.082;11.628;2023-03-29T04:59:20;95583.81;;;2.85;100.00
72409;BME280;60402;48.082;11.628;2023-03-29T05:02:05;95551.91;;;2.83;100.00
72409;BME280;60402;48.082;11.628;2023-03-29T05:04:51;95574.34;;;3.11;100.00
72409;BME280;60402;48.082;11.628;2023-03-29T05:07:37;95566.38;;;3.13;100.00
72409;BME280;60402;48.082;11.628;2023-03-29T05:10:23;95557.63;;;3.32;100.00
72409;BME280;60402;48.082;11.628;2023-03-29T05:13:09;95562.47;;;3.39;100.00
72409;BME280;60402;48.082;11.628;2023-03-29T05:15:55;95561.66;;;3.46;100.00
72409;BME280;60402;48.082;11.628;2023-03-29T05:18:41;95559.66;;;3.43;100.00
72409;BME280;60402;48.082;11.628;2023-03-29T05:21:27;95576.84;;;3.70;100.00
72409;BME280;60402;48.082;11.628;2023-03-29T05:24:13;95552.50;;;3.59;100.00
72409;BME280;60402;48.082;11.628;2023-03-29T05:26:58;95563.69;;;3.81;100.00
72409;BME280;60402;48.082;11.628;2023-03-29T05:29:44;95567.28;;;3.85;100.00
72409;BME280;60402;48.082;11.628;2023-03-29T05:32:31;95546.53;;;3.82;100.00
72409;BME280;60402;48.082;11.628;2023-03-29T05:35:16;95571.28;;;4.05;100.00
72409;BME280;60402;48.082;11.628;2023-03-29T05:38:03;95540.53;;;3.95;100.00
72409;BME280;60402;48.082;11.628;2023-03-29T05:40:49;95552.50;;;4.13;100.00
72409;BME280;60402;48.082;11.628;2023-03-29T05:43:36;95566.88;;;4.29;100.00
72409;BME280;60402;48.082;11.628;2023-03-29T05:46:21;95575.25;;;4.36;100.00
72409;BME280;60402;48.082;11.628;2023-03-29T05:49:07;95580.03;;;4.36;100.00
72409;BME280;60402;48.082;11.628;2023-03-29T05:51:53;95574.84;;;4.27;100.00
72409;BME280;60402;48.082;11.628;2023-03-29T05:54:41;95584.84;;;4.39;100.00
72409;BME280;60402;48.082;11.628;2023-03-29T05:57:26;95584.44;;;4.48;100.00
72409;BME280;60402;48.082;11.628;2023-03-29T06:00:12;95584.81;;;4.50;100.00
72409;BME280;60402;48.082;11.628;2023-03-29T06:03:05;95570.41;;;4.62;100.00
72409;BME280;60402;48.082;11.628;2023-03-29T06:05:57;95588.75;;;4.70;100.00
72409;BME280;60402;48.082;11.628;2023-03-29T06:08:43;95572.41;;;4.61;100.00
72409;BME280;60402;48.082;11.628;2023-03-29T06:11:29;95567.59;;;4.66;100.00
72409;BME280;60402;48.082;11.628;2023-03-29T06:14:16;95576.72;;;4.84;100.00
72409;BME280;60402;48.082;11.628;2023-03-29T06:17:03;95582.75;;;4.86;100.00
72409;BME280;60402;48.082;11.628;2023-03-29T06:19:49;95572.72;;;4.88;100.00
72409;BME280;60402;48.082;11.628;2023-03-29T06:22:38;95587.47;;;5.03;100.00
72409;BME280;60402;48.082;11.628;2023-03-29T06:25:24;95591.50;;;4.92;100.00
72409;BME280;60402;48.082;11.628;2023-03-29T06:28:10;95593.88;;;5.04;100.00
72409;BME280;60402;48.082;11.628;2023-03-29T06:30:56;95589.13;;;4.86;100.00
72409;BME280;60402;48.082;11.628;2023-03-29T06:33:46;95587.88;;;4.98;100.00
72409;BME280;60402;48.082;11.628;2023-03-29T06:36:32;95605.03;;;5.11;100.00
72409;BME280;60402;48.082;11.628;2023-03-29T06:39:19;95582.28;;;5.02;100.00
72409;BME280;60402;48.082;11.628;2023-03-29T06:42:05;95607.78;;;5.22;100.00
72409;BME280;60402;48.082;11.628;2023-03-29T06:44:51;95612.59;;;5.28;100.00
72409;BME280;60402;48.082;11.628;2023-03-29T06:47:36;95606.56;;;5.30;99.46
72409;BME280;60402;48.082;11.628;2023-03-29T06:50:23;95613.69;;;5.49;99.21
72409;BME280;60402;48.082;11.628;2023-03-29T06:53:09;95596.50;;;5.43;99.56
72409;BME280;60402;48.082;11.628;2023-03-29T06:55:55;95620.78;;;5.71;98.66
72409;BME280;60402;48.082;11.628;2023-03-29T06:58:41;95617.13;;;5.78;97.49
72409;BME280;60402;48.082;11.628;2023-03-29T07:01:27;95605.53;;;5.76;96.85
72409;BME280;60402;48.082;11.628;2023-03-29T07:04:12;95612.63;;;5.98;96.95
72409;BME280;60402;48.082;11.628;2023-03-29T07:06:59;95619.25;;;6.22;95.33
72409;BME280;60402;48.082;11.628;2023-03-29T07:09:46;95603.59;;;6.25;95.82
72409;BME280;60402;48.082;11.628;2023-03-29T07:12:38;95618.16;;;6.54;95.36
72409;BME280;60402;48.082;11.628;2023-03-29T07:15:24;95604.06;;;6.64;93.96
72409;BME280;60402;48.082;11.628;2023-03-29T07:18:10;95607.25;;;7.04;91.67
72409;BME280;60402;48.082;11.628;2023-03-29T07:20:57;95611.56;;;7.47;91.07
72409;BME280;60402;48.082;11.628;2023-03-29T07:23:42;95604.94;;;7.60;89.84
72409;BME280;60402;48.082;11.628;2023-03-29T07:26:28;95616.31;;;7.80;89.61
72409;BME280;60402;48.082;11.628;2023-03-29T07:29:15;95601.41;;;7.83;89.39
72409;BME280;60402;48.082;11.628;2023-03-29T07:32:00;95605.81;;;8.11;88.92
72409;BME280;60402;48.082;11.628;2023-03-29T07:34:46;95595.63;;;8.48;85.82
72409;BME280;60402;48.082;11.628;2023-03-29T07:37:34;95619.06;;;9.52;82.53
72409;BME280;60402;48.082;11.628;2023-03-29T07:40:22;95630.78;;;10.26;78.98
72409;BME280;60402;48.082;11.628;2023-03-29T07:43:07;95618.94;;;10.31;77.54
72409;BME280;60402;48.082;11.628;2023-03-29T07:45:59;95615.78;;;10.09;78.17
72409;BME280;60402;48.082;11.628;2023-03-29T07:48:45;95630.75;;;9.50;80.63
72409;BME280;60402;48.082;11.628;2023-03-29T07:51:31;95619.97;;;9.25;80.85
72409;BME280;60402;48.082;11.628;2023-03-29T07:54:17;95621.28;;;9.20;83.92
72409;BME280;60402;48.082;11.628;2023-03-29T07:57:03;95619.16;;;9.05;81.20
72409;BME280;60402;48.082;11.628;2023-03-29T07:59:48;95601.81;;;8.63;81.57
72409;BME280;60402;48.082;11.628;2023-03-29T08:02:34;95608.81;;;8.75;81.59
72409;BME280;60402;48.082;11.628;2023-03-29T08:05:20;95627.84;;;8.70;82.16
72409;BME280;60402;48.082;11.628;2023-03-29T08:08:07;95624.63;;;8.68;82.11
72409;BME280;60402;48.082;11.628;2023-03-29T08:10:53;95603.16;;;8.55;82.28
72409;BME280;60402;48.082;11.628;2023-03-29T08:13:39;95630.25;;;8.92;81.55
72409;BME280;60402;48.082;11.628;2023-03-29T08:16:25;95617.72;;;8.73;81.06
72409;BME280;60402;48.082;11.628;2023-03-29T08:19:11;95627.88;;;8.90;81.54
72409;BME280;60402;48.082;11.628;2023-03-29T08:21:57;95621.03;;;8.91;81.42
72409;BME280;60402;48.082;11.628;2023-03-29T08:24:43;95620.66;;;8.89;81.69
72409;BME280;60402;48.082;11.628;2023-03-29T08:27:29;95624.38;;;9.06;80.50
72409;BME280;60402;48.082;11.628;2023-03-29T08:30:14;95633.69;;;9.03;80.70
72409;BME280;60402;48.082;11.628;2023-03-29T08:33:00;95636.28;;;8.94;80.69
72409;BME280;60402;48.082;11.628;2023-03-29T08:35:46;95637.13;;;8.91;80.21
72409;BME280;60402;48.082;11.628;2023-03-29T08:38:32;95629.22;;;8.82;80.48
72409;BME280;60402;48.082;11.628;2023-03-29T08:41:41;95634.88;;;8.82;80.55
72409;BME280;60402;48.082;11.628;2023-03-29T08:47:58;95634.16;;;8.98;80.90
72409;BME280;60402;48.082;11.628;2023-03-29T08:50:49;95625.06;;;8.90;81.20
72409;BME280;60402;48.082;11.628;2023-03-29T08:53:41;95625.38;;;9.16;81.03
72409;BME280;60402;48.082;11.628;2023-03-29T08:56:31;95642.34;;;9.56;79.80
72409;BME280;60402;48.082;11.628;2023-03-29T08:59:28;95634.97;;;10.54;77.85
72409;BME280;60402;48.082;11.628;2023-03-29T09:02:18;95634.53;;;11.17;75.23
72409;BME280;60402;48.082;11.628;2023-03-29T09:05:17;95619.53;;;11.20;73.90
72409;BME280;60402;48.082;11.628;2023-03-29T09:08:12;95608.84;;;11.12;74.37
72409;BME280;60402;48.082;11.628;2023-03-29T09:20:11;95619.56;;;10.39;76.79
72409;BME280;60402;48.082;11.628;2023-03-29T09:26:40;95634.25;;;10.14;77.97
72409;BME280;60402;48.082;11.628;2023-03-29T09:29:55;95632.28;;;10.31;77.92
72409;BME280;60402;48.082;11.628;2023-03-29T09:32:49;95622.78;;;10.21;77.53
72409;BME280;60402;48.082;11.628;2023-03-29T09:35:37;95633.25;;;10.40;77.39
72409;BME280;60402;48.082;11.628;2023-03-29T09:38:28;95626.28;;;10.45;78.22
72409;BME280;60402;48.082;11.628;2023-03-29T09:41:30;95607.72;;;10.44;77.38
72409;BME280;60402;48.082;11.628;2023-03-29T09:44:21;95622.34;;;10.59;77.14
72409;BME280;60402;48.082;11.628;2023-03-29T09:47:26;95607.50;;;10.55;76.91
72409;BME280;60402;48.082;11.628;2023-03-29T09:50:21;95628.94;;;10.52;77.13
72409;BME280;60402;48.082;11.628;2023-03-29T09:53:09;95610.41;;;10.51;76.97
72409;BME280;60402;48.082;11.628;2023-03-29T09:55:55;95598.19;;;10.38;77.67
72409;BME280;60402;48.082;11.628;2023-03-29T09:58:44;95605.63;;;10.48;77.50
72409;BME280;60402;48.082;11.628;2023-03-29T10:01:36;95615.06;;;10.90;76.66
72409;BME280;60402;48.082;11.628;2023-03-29T10:04:24;95616.84;;;11.30;74.83
72409;BME280;60402;48.082;11.628;2023-03-29T10:07:18;95620.22;;;11.54;74.62
72409;BME280;60402;48.082;11.628;2023-03-29T10:10:08;95612.72;;;11.47;73.32
72409;BME280;60402;48.082;11.628;2023-03-29T10:13:05;95596.19;;;11.45;73.24
72409;BME280;60402;48.082;11.628;2023-03-29T10:16:07;95592.53;;;11.32;72.29
72409;BME280;60402;48.082;11.628;2023-03-29T10:18:53;95593.22;;;11.36;72.54
72409;BME280;60402;48.082;11.628;2023-03-29T10:21:39;95603.56;;;11.56;72.29
72409;BME280;60402;48.082;11.628;2023-03-29T10:24:27;95601.50;;;11.72;73.36
72409;BME280;60402;48.082;11.628;2023-03-29T10:27:12;95603.75;;;11.77;72.59
72409;BME280;60402;48.082;11.628;2023-03-29T10:29:59;95596.78;;;11.82;72.27
72409;BME280;60402;48.082;11.628;2023-03-29T10:32:56;95597.56;;;11.83;72.54
72409;BME280;60402;48.082;11.628;2023-03-29T10:35:43;95593.72;;;11.89;71.56
72409;BME280;60402;48.082;11.628;2023-03-29T10:38:29;95604.34;;;11.85;72.12
72409;BME280;60402;48.082;11.628;2023-03-29T10:41:15;95591.69;;;11.90;71.64
72409;BME280;60402;48.082;11.628;2023-03-29T10:44:02;95573.34;;;11.94;72.47
72409;BME280;60402;48.082;11.628;2023-03-29T10:46:48;95568.03;;;12.35;71.01
72409;BME280;60402;48.082;11.628;2023-03-29T10:49:40;95571.97;;;12.50;72.07
72409;BME280;60402;48.082;11.628;2023-03-29T10:52:28;95583.06;;;12.70;70.51
72409;BME280;60402;48.082;11.628;2023-03-29T10:55:14;95564.66;;;12.87;69.55
72409;BME280;60402;48.082;11.628;2023-03-29T11:01:29;95542.38;;;12.98;64.04
72409;BME280;60402;48.082;11.628;2023-03-29T11:19:58;95547.72;;;12.49;62.28
72409;BME280;60402;48.082;11.628;2023-03-29T11:26:03;95564.00;;;13.18;63.19
72409;BME280;60402;48.082;11.628;2023-03-29T11:29:19;95553.94;;;13.39;57.97
72409;BME280;60402;48.082;11.628;2023-03-29T11:32:14;95560.41;;;13.39;56.02
72409;BME280;60402;48.082;11.628;2023-03-29T11:35:21;95562.47;;;13.61;55.50
72409;BME280;60402;48.082;11.628;2023-03-29T11:38:35;95563.72;;;13.81;55.36
72409;BME280;60402;48.082;11.628;2023-03-29T11:41:26;95564.75;;;13.97;53.97
72409;BME280;60402;48.082;11.628;2023-03-29T11:44:18;95556.31;;;14.15;52.95
72409;BME280;60402;48.082;11.628;2023-03-29T11:47:09;95544.81;;;14.19;52.86
72409;BME280;60402;48.082;11.628;2023-03-29T11:50:03;95571.66;;;14.18;51.76
72409;BME280;60402;48.082;11.628;2023-03-29T11:53:02;95560.66;;;13.98;52.59
72409;BME280;60402;48.082;11.628;2023-03-29T11:55:50;95533.41;;;14.10;52.67
72409;BME280;60402;48.082;11.628;2023-03-29T11:58:40;95548.94;;;13.96;53.12
72409;BME280;60402;48.082;11.628;2023-03-29T12:01:41;95551.47;;;14.25;51.97
72409;BME280;60402;48.082;11.628;2023-03-29T12:04:58;95550.31;;;14.13;51.23
72409;BME280;60402;48.082;11.628;2023-03-29T12:08:19;95464.06;;;13.67;51.37
72409;BME280;60402;48.082;11.628;2023-03-29T12:32:05;95525.44;;;13.95;51.44
72409;BME280;60402;48.082;11.628;2023-03-29T12:39:03;95524.09;;;14.09;48.97
72409;BME280;60402;48.082;11.628;2023-03-29T12:41:52;95511.66;;;13.85;49.90
72409;BME280;60402;48.082;11.628;2023-03-29T12:47:59;95468.53;;;13.46;50.73
72409;BME280;60402;48.082;11.628;2023-03-29T12:51:03;95479.91;;;13.46;50.97
72409;BME280;60402;48.082;11.628;2023-03-29T12:54:12;95490.38;;;13.58;51.13
72409;BME280;60402;48.082;11.628;2023-03-29T12:57:18;95503.03;;;13.66;51.92
72409;BME280;60402;48.082;11.628;2023-03-29T13:06:57;95499.09;;;13.95;50.81
72409;BME280;60402;48.082;11.628;2023-03-29T13:09:54;95495.50;;;14.03;52.35
72409;BME280;60402;48.082;11.628;2023-03-29T13:12:44;95500.81;;;14.32;51.72
72409;BME280;60402;48.082;11.628;2023-03-29T13:15:33;95480.06;;;14.54;50.60
72409;BME280;60402;48.082;11.628;2023-03-29T13:21:46;95486.59;;;14.82;48.81
72409;BME280;60402;48.082;11.628;2023-03-29T13:27:56;95493.78;;;14.55;46.75
72409;BME280;60402;48.082;11.628;2023-03-29T13:40:22;95482.47;;;14.74;46.68
72409;BME280;60402;48.082;11.628;2023-03-29T13:52:12;95480.69;;;14.76;44.65
72409;BME280;60402;48.082;11.628;2023-03-29T13:58:44;95436.28;;;14.51;44.65
72409;BME280;60402;48.082;11.628;2023-03-29T14:05:00;95392.91;;;14.11;44.41
72409;BME280;60402;48.082;11.628;2023-03-29T14:07:50;95470.91;;;14.59;44.47
72409;BME280;60402;48.082;11.628;2023-03-29T14:10:41;95429.56;;;14.18;45.00
72409;BME280;60402;48.082;11.628;2023-03-29T14:13:29;95444.06;;;14.20;44.27
72409;BME280;60402;48.082;11.628;2023-03-29T14:16:15;95456.53;;;14.13;44.99
72409;BME280;60402;48.082;11.628;2023-03-29T14:19:26;95457.59;;;14.06;45.68
72409;BME280;60402;48.082;11.628;2023-03-29T14:22:13;95461.22;;;13.98;46.15
72409;BME280;60402;48.082;11.628;2023-03-29T14:25:04;95473.41;;;14.07;45.80
72409;BME280;60402;48.082;11.628;2023-03-29T14:27:50;95449.50;;;13.87;46.37
72409;BME280;60402;48.082;11.628;2023-03-29T14:30:36;95458.00;;;13.87;46.48
72409;BME280;60402;48.082;11.628;2023-03-29T14:33:30;95467.19;;;13.91;47.27
72409;BME280;60402;48.082;11.628;2023-03-29T14:36:18;95468.00;;;14.00;47.05
72409;BME280;60402;48.082;11.628;2023-03-29T14:39:14;95466.44;;;13.99;46.94
72409;BME280;60402;48.082;11.628;2023-03-29T14:42:01;95467.25;;;14.09;46.64
72409;BME280;60402;48.082;11.628;2023-03-29T14:44:48;95471.81;;;13.97;47.03
72409;BME280;60402;48.082;11.628;2023-03-29T14:47:34;95424.94;;;13.62;48.23
72409;BME280;60402;48.082;11.628;2023-03-29T14:50:27;95461.19;;;13.89;47.63
72409;BME280;60402;48.082;11.628;2023-03-29T14:53:19;95445.63;;;13.71;48.32
72409;BME280;60402;48.082;11.628;2023-03-29T14:56:09;95422.97;;;13.80;48.59
72409;BME280;60402;48.082;11.628;2023-03-29T14:58:56;95447.72;;;13.80;48.98
72409;BME280;60402;48.082;11.628;2023-03-29T15:01:44;95458.13;;;13.74;50.31
72409;BME280;60402;48.082;11.628;2023-03-29T15:04:34;95451.06;;;13.78;49.21
72409;BME280;60402;48.082;11.628;2023-03-29T15:07:24;95475.38;;;13.58;50.57
72409;BME280;60402;48.082;11.628;2023-03-29T15:10:16;95484.19;;;13.50;52.32
72409;BME280;60402;48.082;11.628;2023-03-29T15:13:04;95484.38;;;13.34;54.49
72409;BME280;60402;48.082;11.628;2023-03-29T15:15:52;95474.97;;;13.02;55.31
72409;BME280;60402;48.082;11.628;2023-03-29T15:18:41;95482.38;;;13.00;57.85
72409;BME280;60402;48.082;11.628;2023-03-29T15:21:31;95483.56;;;12.90;59.39
72409;BME280;60402;48.082;11.628;2023-03-29T15:24:41;95489.28;;;12.77;60.35
72409;BME280;60402;48.082;11.628;2023-03-29T15:27:27;95477.63;;;12.62;63.58
72409;BME280;60402;48.082;11.628;2023-03-29T15:30:35;95458.53;;;12.41;65.96
72409;BME280;60402;48.082;11.628;2023-03-29T15:33:22;95501.81;;;12.41;65.13
72409;BME280;60402;48.082;11.628;2023-03-29T15:36:11;95491.09;;;12.23;68.28
72409;BME280;60402;48.082;11.628;2023-03-29T15:38:58;95485.09;;;12.09;69.58
72409;BME280;60402;48.082;11.628;2023-03-29T15:41:45;95487.03;;;12.12;68.78
72409;BME280;60402;48.082;11.628;2023-03-29T15:44:32;95487.94;;;11.96;71.66
72409;BME280;60402;48.082;11.628;2023-03-29T15:47:18;95470.38;;;12.01;70.90
72409;BME280;60402;48.082;11.628;2023-03-29T15:50:04;95477.97;;;11.91;71.95
72409;BME280;60402;48.082;11.628;2023-03-29T15:52:49;95461.84;;;11.75;73.83
72409;BME280;60402;48.082;11.628;2023-03-29T15:55:38;95464.94;;;11.81;74.19
72409;BME280;60402;48.082;11.628;2023-03-29T15:58:28;95450.53;;;11.75;75.97
72409;BME280;60402;48.082;11.628;2023-03-29T16:01:29;95449.31;;;11.89;76.20
72409;BME280;60402;48.082;11.628;2023-03-29T16:04:20;95450.66;;;11.85;75.82
72409;BME280;60402;48.082;11.628;2023-03-29T16:07:13;95447.28;;;11.90;75.52
72409;BME280;60402;48.082;11.628;2023-03-29T16:09:59;95444.53;;;11.73;76.22
72409;BME280;60402;48.082;11.628;2023-03-29T16:12:45;95459.81;;;11.76;76.82
72409;BME280;60402;48.082;11.628;2023-03-29T16:15:32;95461.88;;;11.63;77.30
72409;BME280;60402;48.082;11.628;2023-03-29T16:18:18;95450.75;;;11.56;78.77
72409;BME280;60402;48.082;11.628;2023-03-29T16:21:04;95458.69;;;11.61;78.96
72409;BME280;60402;48.082;11.628;2023-03-29T16:23:49;95438.53;;;11.46;80.15
72409;BME280;60402;48.082;11.628;2023-03-29T16:26:35;95455.03;;;11.35;82.78
72409;BME280;60402;48.082;11.628;2023-03-29T16:29:22;95464.97;;;11.26;82.74
72409;BME280;60402;48.082;11.628;2023-03-29T16:32:08;95452.19;;;11.22;83.13
72409;BME280;60402;48.082;11.628;2023-03-29T16:34:54;95459.28;;;11.14;84.03
72409;BME280;60402;48.082;11.628;2023-03-29T16:37:42;95456.03;;;11.15;84.96
72409;BME280;60402;48.082;11.628;2023-03-29T16:40:28;95459.06;;;11.08;85.96
72409;BME280;60402;48.082;11.628;2023-03-29T16:43:14;95473.28;;;11.05;86.46
72409;BME280;60402;48.082;11.628;2023-03-29T16:46:00;95467.47;;;10.83;87.77
72409;BME280;60402;48.082;11.628;2023-03-29T16:48:46;95458.06;;;10.86;88.06